sensor_id;sensor_type;location;lat;lon;timestamp;pressure;altitude;pressure_sealevel;temperature;humidity
59654;BME280;66556;52.008;5.432;2023-05-02T00:00:55;101998.0;;;28.5;28.54
59654;BME280;66556;52.008;5.432;2023-05-02T00:04:08;101997.0;;;28.77;28.3
59654;BME280;66556;52.008;5.432;2023-05-02T00:05:44;101998.0;;;28.97;27.96
59654;BME280;66556;52.008;5.432;2023-05-02T00:07:20;102000.0;;;29.0;27.79
59654;BME280;66556;52.008;5.432;2023-05-02T00:10:33;102002.0;;;28.45;28.65
59654;BME280;66556;52.008;5.432;2023-05-02T00:12:09;101997.0;;;28.43;28.73
59654;BME280;66556;52.008;5.432;2023-05-02T00:13:45;101999.0;;;28.3;28.92
59654;BME280;66556;52.008;5.432;2023-05-02T00:16:57;101996.0;;;28.7;28.48
59654;BME280;66556;52.008;5.432;2023-05-02T00:18:34;101997.0;;;28.44;28.7
59654;BME280;66556;52.008;5.432;2023-05-02T00:20:10;101999.0;;;28.59;28.51
59654;BME280;66556;52.008;5.432;2023-05-02T00:21:47;101995.0;;;28.57;28.57
59654;BME280;66556;52.008;5.432;2023-05-02T00:25:00;101996.0;;;28.71;28.31
59654;BME280;66556;52.008;5.432;2023-05-02T00:26:36;101992.0;;;28.77;28.26
59654;BME280;66556;52.008;5.432;2023-05-02T00:28:13;101997.0;;;29.07;27.81
59654;BME280;66556;52.008;5.432;2023-05-02T00:31:25;102003.0;;;28.93;28.33
59654;BME280;66556;52.008;5.432;2023-05-02T00:33:01;102005.0;;;28.78;28.22
59654;BME280;66556;52.008;5.432;2023-05-02T00:34:37;102005.0;;;28.97;28.09
59654;BME280;66556;52.008;5.432;2023-05-02T00:37:51;102003.0;;;29.0;28.22
59654;BME280;66556;52.008;5.432;2023-05-02T00:39:27;102009.0;;;28.7;28.33
59654;BME280;66556;52.008;5.432;2023-05-02T00:41:03;102001.0;;;29.13;27.8
59654;BME280;66556;52.008;5.432;2023-05-02T00:42:39;102000.0;;;29.19;27.47
59654;BME280;66556;52.008;5.432;2023-05-02T00:45:51;102003.0;;;29.05;27.88
59654;BME280;66556;52.008;5.432;2023-05-02T00:47:28;101998.0;;;28.98;27.8
59654;BME280;66556;52.008;5.432;2023-05-02T00:49:04;102002.0;;;28.66;28.39
59654;BME280;66556;52.008;5.432;2023-05-02T00:52:18;102002.0;;;28.84;28.15
59654;BME280;66556;52.008;5.432;2023-05-02T00:53:55;102001.0;;;29.03;27.92
59654;BME280;66556;52.008;5.432;2023-05-02T00:55:31;101997.0;;;28.94;28.19
59654;BME280;66556;52.008;5.432;2023-05-02T00:58:44;101998.0;;;29.08;27.9
59654;BME280;66556;52.008;5.432;2023-05-02T01:00:29;101996.0;;;28.82;28.16
59654;BME280;66556;52.008;5.432;2023-05-02T01:02:12;101994.0;;;28.94;28.4
59654;BME280;66556;52.008;5.432;2023-05-02T01:04:17;102006.0;;;28.91;27.98
59654;BME280;66556;52.008;5.432;2023-05-02T01:06:18;102001.0;;;29.2;27.67
59654;BME280;66556;52.008;5.432;2023-05-02T01:08:04;102005.0;;;28.94;27.88
59654;BME280;66556;52.008;5.432;2023-05-02T01:11:51;102005.0;;;29.19;27.94
59654;BME280;66556;52.008;5.432;2023-05-02T01:13:32;102007.0;;;28.85;28.19
59654;BME280;66556;52.008;5.432;2023-05-02T01:15:11;102007.0;;;28.77;28.32
59654;BME280;66556;52.008;5.432;2023-05-02T01:16:51;102009.0;;;29.1;28.06
59654;BME280;66556;52.008;5.432;2023-05-02T01:18:31;102008.0;;;29.27;27.78
59654;BME280;66556;52.008;5.432;2023-05-02T01:21:52;102011.0;;;29.02;28.06
59654;BME280;66556;52.008;5.432;2023-05-02T01:23:37;102016.0;;;28.87;28.22
59654;BME280;66556;52.008;5.432;2023-05-02T01:25:21;102014.0;;;29.18;27.99
59654;BME280;66556;52.008;5.432;2023-05-02T01:27:13;102013.0;;;29.28;27.77
59654;BME280;66556;52.008;5.432;2023-05-02T01:28:57;102016.0;;;29.11;27.93
59654;BME280;66556;52.008;5.432;2023-05-02T01:32:14;102023.0;;;28.65;28.66
59654;BME280;66556;52.008;5.432;2023-05-02T01:33:51;102020.0;;;28.67;28.68
59654;BME280;66556;52.008;5.432;2023-05-02T01:35:29;102017.0;;;29.21;27.87
59654;BME280;66556;52.008;5.432;2023-05-02T01:37:10;102023.0;;;28.4;29.15
59654;BME280;66556;52.008;5.432;2023-05-02T01:40:26;102023.0;;;29.06;28.34
59654;BME280;66556;52.008;5.432;2023-05-02T01:42:04;102022.0;;;29.12;28.05
59654;BME280;66556;52.008;5.432;2023-05-02T01:43:41;102024.0;;;29.24;28.11
59654;BME280;66556;52.008;5.432;2023-05-02T01:46:56;102033.0;;;28.74;28.82
59654;BME280;66556;52.008;5.432;2023-05-02T01:48:35;102032.0;;;28.76;28.81
59654;BME280;66556;52.008;5.432;2023-05-02T01:50:15;102039.0;;;28.2;29.48
59654;BME280;66556;52.008;5.432;2023-05-02T01:51:53;102039.0;;;26.53;31.62
59654;BME280;66556;52.008;5.432;2023-05-02T01:55:12;102044.0;;;27.84;29.8
59654;BME280;66556;52.008;5.432;2023-05-02T01:56:50;102050.0;;;27.91;29.38
59654;BME280;66556;52.008;5.432;2023-05-02T01:58:28;102046.0;;;27.46;29.81
59654;BME280;66556;52.008;5.432;2023-05-02T02:00:07;102056.0;;;27.52;29.69
59654;BME280;66556;52.008;5.432;2023-05-02T02:03:25;102056.0;;;28.14;29.01
59654;BME280;66556;52.008;5.432;2023-05-02T02:05:04;102063.0;;;28.03;28.92
59654;BME280;66556;52.008;5.432;2023-05-02T02:06:45;102069.0;;;28.32;28.5
59654;BME280;66556;52.008;5.432;2023-05-02T02:08:34;102070.0;;;27.96;29.13
59654;BME280;66556;52.008;5.432;2023-05-02T02:11:50;102069.0;;;28.0;28.77
59654;BME280;66556;52.008;5.432;2023-05-02T02:13:33;102072.0;;;27.73;29.15
59654;BME280;66556;52.008;5.432;2023-05-02T02:15:17;102072.0;;;27.99;28.76
59654;BME280;66556;52.008;5.432;2023-05-02T02:17:00;102075.0;;;28.07;28.49
59654;BME280;66556;52.008;5.432;2023-05-02T02:20:14;102080.0;;;27.63;28.85
59654;BME280;66556;52.008;5.432;2023-05-02T02:21:53;102082.0;;;28.06;28.54
59654;BME280;66556;52.008;5.432;2023-05-02T02:23:31;102078.0;;;28.05;28.6
59654;BME280;66556;52.008;5.432;2023-05-02T02:25:11;102078.0;;;27.68;28.62
59654;BME280;66556;52.008;5.432;2023-05-02T02:28:26;102084.0;;;28.0;28.53
59654;BME280;66556;52.008;5.432;2023-05-02T02:30:03;102082.0;;;28.1;27.94
59654;BME280;66556;52.008;5.432;2023-05-02T02:31:39;102083.0;;;28.28;27.79
59654;BME280;66556;52.008;5.432;2023-05-02T02:34:52;102091.0;;;28.26;27.95
59654;BME280;66556;52.008;5.432;2023-05-02T02:36:33;102097.0;;;28.13;28.1
59654;BME280;66556;52.008;5.432;2023-05-02T02:38:19;102100.0;;;28.18;28.1
59654;BME280;66556;52.008;5.432;2023-05-02T02:40:04;102103.0;;;27.91;28.21
59654;BME280;66556;52.008;5.432;2023-05-02T02:43:35;102110.0;;;27.97;28.12
59654;BME280;66556;52.008;5.432;2023-05-02T02:45:24;102117.0;;;28.37;27.61
59654;BME280;66556;52.008;5.432;2023-05-02T02:47:08;102112.0;;;28.42;27.53
59654;BME280;66556;52.008;5.432;2023-05-02T02:49:08;102114.0;;;27.58;27.96
59654;BME280;66556;52.008;5.432;2023-05-02T02:50:58;102113.0;;;27.86;27.81
59654;BME280;66556;52.008;5.432;2023-05-02T02:52:49;102115.0;;;27.78;27.73
59654;BME280;66556;52.008;5.432;2023-05-02T02:54:32;102118.0;;;27.48;27.9
59654;BME280;66556;52.008;5.432;2023-05-02T02:57:58;102121.0;;;27.53;27.7
59654;BME280;66556;52.008;5.432;2023-05-02T02:59:39;102119.0;;;27.77;27.37
59654;BME280;66556;52.008;5.432;2023-05-02T03:01:23;102120.0;;;27.99;26.88
59654;BME280;66556;52.008;5.432;2023-05-02T03:03:01;102120.0;;;27.53;27.44
59654;BME280;66556;52.008;5.432;2023-05-02T03:06:17;102122.0;;;27.87;26.93
59654;BME280;66556;52.008;5.432;2023-05-02T03:07:54;102126.0;;;27.75;26.98
59654;BME280;66556;52.008;5.432;2023-05-02T03:09:39;102130.0;;;26.94;27.72
59654;BME280;66556;52.008;5.432;2023-05-02T03:11:15;102135.0;;;27.55;27.13
59654;BME280;66556;52.008;5.432;2023-05-02T03:14:27;102132.0;;;27.87;26.84
59654;BME280;66556;52.008;5.432;2023-05-02T03:16:36;102136.0;;;28.02;26.55
59654;BME280;66556;52.008;5.432;2023-05-02T03:18:23;102133.0;;;28.01;26.36
59654;BME280;66556;52.008;5.432;2023-05-02T03:19:59;102142.0;;;27.94;26.59
59654;BME280;66556;52.008;5.432;2023-05-02T03:21:35;102142.0;;;27.95;26.49
59654;BME280;66556;52.008;5.432;2023-05-02T03:24:47;102151.0;;;27.9;26.49
59654;BME280;66556;52.008;5.432;2023-05-02T03:26:24;102153.0;;;27.89;26.42
59654;BME280;66556;52.008;5.432;2023-05-02T03:28:00;102150.0;;;28.02;26.36
59654;BME280;66556;52.008;5.432;2023-05-02T03:31:12;102156.0;;;28.05;26.33
59654;BME280;66556;52.008;5.432;2023-05-02T03:32:50;102164.0;;;27.78;26.34
59654;BME280;66556;52.008;5.432;2023-05-02T03:34:27;102161.0;;;28.05;26.19
59654;BME280;66556;52.008;5.432;2023-05-02T03:37:39;102167.0;;;27.8;26.52
59654;BME280;66556;52.008;5.432;2023-05-02T03:39:15;102165.0;;;27.64;26.37
59654;BME280;66556;52.008;5.432;2023-05-02T03:40:51;102171.0;;;27.87;26.34
59654;BME280;66556;52.008;5.432;2023-05-02T03:44:03;102170.0;;;27.52;26.71
59654;BME280;66556;52.008;5.432;2023-05-02T03:45:40;102172.0;;;27.56;26.54
59654;BME280;66556;52.008;5.432;2023-05-02T03:47:16;102175.0;;;27.24;26.83
59654;BME280;66556;52.008;5.432;2023-05-02T03:48:52;102174.0;;;27.21;26.87
59654;BME280;66556;52.008;5.432;2023-05-02T03:52:04;102172.0;;;27.76;26.25
59654;BME280;66556;52.008;5.432;2023-05-02T03:53:41;102176.0;;;27.57;26.44
59654;BME280;66556;52.008;5.432;2023-05-02T03:55:17;102178.0;;;27.74;26.36
59654;BME280;66556;52.008;5.432;2023-05-02T03:58:29;102178.0;;;27.52;26.51
59654;BME280;66556;52.008;5.432;2023-05-02T04:00:06;102180.0;;;27.54;26.33
59654;BME280;66556;52.008;5.432;2023-05-02T04:01:43;102182.0;;;27.69;26.57
59654;BME280;66556;52.008;5.432;2023-05-02T04:04:57;102183.0;;;27.68;26.21
59654;BME280;66556;52.008;5.432;2023-05-02T04:06:33;102188.0;;;27.91;26.1
59654;BME280;66556;52.008;5.432;2023-05-02T04:08:08;102193.0;;;27.63;26.26
59654;BME280;66556;52.008;5.432;2023-05-02T04:09:45;102199.0;;;27.37;26.54
59654;BME280;66556;52.008;5.432;2023-05-02T04:12:57;102200.0;;;27.37;26.42
59654;BME280;66556;52.008;5.432;2023-05-02T04:14:33;102202.0;;;27.64;26.37
59654;BME280;66556;52.008;5.432;2023-05-02T04:16:09;102201.0;;;27.47;26.49
59654;BME280;66556;52.008;5.432;2023-05-02T04:19:22;102205.0;;;27.76;26.03
59654;BME280;66556;52.008;5.432;2023-05-02T04:20:58;102205.0;;;27.75;25.9
59654;BME280;66556;52.008;5.432;2023-05-02T04:22:34;102210.0;;;27.46;25.97
59654;BME280;66556;52.008;5.432;2023-05-02T04:25:51;102214.0;;;27.32;26.2
59654;BME280;66556;52.008;5.432;2023-05-02T04:27:27;102221.0;;;27.35;26.36
59654;BME280;66556;52.008;5.432;2023-05-02T04:29:04;102223.0;;;27.48;26.27
59654;BME280;66556;52.008;5.432;2023-05-02T04:30:40;102219.0;;;27.0;26.67
59654;BME280;66556;52.008;5.432;2023-05-02T04:33:52;102226.0;;;26.48;27.35
59654;BME280;66556;52.008;5.432;2023-05-02T04:35:29;102226.0;;;26.66;27.11
59654;BME280;66556;52.008;5.432;2023-05-02T04:37:05;102228.0;;;27.45;26.15
59654;BME280;66556;52.008;5.432;2023-05-02T04:40:17;102233.0;;;27.29;26.47
59654;BME280;66556;52.008;5.432;2023-05-02T04:41:53;102237.0;;;27.36;26.24
59654;BME280;66556;52.008;5.432;2023-05-02T04:43:29;102235.0;;;27.42;26.11
59654;BME280;66556;52.008;5.432;2023-05-02T04:46:43;102240.0;;;27.13;26.36
59654;BME280;66556;52.008;5.432;2023-05-02T04:48:19;102242.0;;;27.49;26.01
59654;BME280;66556;52.008;5.432;2023-05-02T04:49:55;102247.0;;;27.39;26.04
59654;BME280;66556;52.008;5.432;2023-05-02T04:53:07;102242.0;;;27.07;26.32
59654;BME280;66556;52.008;5.432;2023-05-02T04:54:43;102253.0;;;27.39;25.96
59654;BME280;66556;52.008;5.432;2023-05-02T04:56:20;102255.0;;;27.17;26.11
59654;BME280;66556;52.008;5.432;2023-05-02T04:57:56;102261.0;;;27.02;26.24
59654;BME280;66556;52.008;5.432;2023-05-02T05:01:12;102262.0;;;26.86;26.4
59654;BME280;66556;52.008;5.432;2023-05-02T05:02:48;102266.0;;;26.8;26.58
59654;BME280;66556;52.008;5.432;2023-05-02T05:04:24;102275.0;;;27.2;26.12
59654;BME280;66556;52.008;5.432;2023-05-02T05:07:37;102276.0;;;26.74;26.49
59654;BME280;66556;52.008;5.432;2023-05-02T05:09:13;102281.0;;;27.21;25.95
59654;BME280;66556;52.008;5.432;2023-05-02T05:10:50;102287.0;;;27.06;25.97
59654;BME280;66556;52.008;5.432;2023-05-02T05:14:02;102290.0;;;26.52;26.64
59654;BME280;66556;52.008;5.432;2023-05-02T05:15:39;102298.0;;;26.48;26.22
59654;BME280;66556;52.008;5.432;2023-05-02T05:17:15;102289.0;;;26.76;25.73
59654;BME280;66556;52.008;5.432;2023-05-02T05:18:52;102287.0;;;25.57;26.99
59654;BME280;66556;52.008;5.432;2023-05-02T05:22:04;102300.0;;;26.69;25.81
59654;BME280;66556;52.008;5.432;2023-05-02T05:23:40;102305.0;;;26.28;25.91
59654;BME280;66556;52.008;5.432;2023-05-02T05:25:17;102307.0;;;26.5;25.64
59654;BME280;66556;52.008;5.432;2023-05-02T05:28:29;102303.0;;;26.71;25.2
59654;BME280;66556;52.008;5.432;2023-05-02T05:30:06;102306.0;;;26.71;25.36
59654;BME280;66556;52.008;5.432;2023-05-02T05:31:42;102310.0;;;26.8;25.29
59654;BME280;66556;52.008;5.432;2023-05-02T05:34:55;102310.0;;;26.71;25.04
59654;BME280;66556;52.008;5.432;2023-05-02T05:36:31;102315.0;;;27.43;24.62
59654;BME280;66556;52.008;5.432;2023-05-02T05:38:07;102319.0;;;27.56;24.89
59654;BME280;66556;52.008;5.432;2023-05-02T05:39:43;102317.0;;;26.99;25.16
59654;BME280;66556;52.008;5.432;2023-05-02T05:42:56;102326.0;;;27.39;24.48
59654;BME280;66556;52.008;5.432;2023-05-02T05:44:33;102330.0;;;27.19;24.37
59654;BME280;66556;52.008;5.432;2023-05-02T05:46:09;102332.0;;;27.19;24.56
59654;BME280;66556;52.008;5.432;2023-05-02T05:49:21;102335.0;;;27.26;24.48
59654;BME280;66556;52.008;5.432;2023-05-02T05:51:02;102341.0;;;25.66;26.04
59654;BME280;66556;52.008;5.432;2023-05-02T05:52:38;102344.0;;;26.48;25.31
59654;BME280;66556;52.008;5.432;2023-05-02T05:55:52;102353.0;;;26.95;24.81
59654;BME280;66556;52.008;5.432;2023-05-02T05:57:28;102357.0;;;26.39;25.47
59654;BME280;66556;52.008;5.432;2023-05-02T05:59:04;102359.0;;;26.13;25.51
59654;BME280;66556;52.008;5.432;2023-05-02T06:00:40;102361.0;;;27.11;24.68
59654;BME280;66556;52.008;5.432;2023-05-02T06:03:53;102364.0;;;26.9;24.69
59654;BME280;66556;52.008;5.432;2023-05-02T06:05:29;102372.0;;;26.47;25.19
59654;BME280;66556;52.008;5.432;2023-05-02T06:07:06;102376.0;;;26.47;25.35
59654;BME280;66556;52.008;5.432;2023-05-02T06:10:18;102378.0;;;26.18;25.5
59654;BME280;66556;52.008;5.432;2023-05-02T06:11:55;102384.0;;;26.06;25.81
59654;BME280;66556;52.008;5.432;2023-05-02T06:13:31;102384.0;;;26.79;25.27
59654;BME280;66556;52.008;5.432;2023-05-02T06:16:43;102393.0;;;26.82;24.99
59654;BME280;66556;52.008;5.432;2023-05-02T06:18:19;102398.0;;;25.94;25.62
59654;BME280;66556;52.008;5.432;2023-05-02T06:19:56;102404.0;;;26.04;25.67
59654;BME280;66556;52.008;5.432;2023-05-02T06:21:32;102408.0;;;26.86;24.73
59654;BME280;66556;52.008;5.432;2023-05-02T06:24:44;102407.0;;;26.43;25.11
59654;BME280;66556;52.008;5.432;2023-05-02T06:26:20;102413.00000000001;;;25.77;25.51
59654;BME280;66556;52.008;5.432;2023-05-02T06:27:56;102416.00000000001;;;26.11;25.08
59654;BME280;66556;52.008;5.432;2023-05-02T06:31:09;102415.00000000001;;;26.94;24.42
59654;BME280;66556;52.008;5.432;2023-05-02T06:32:45;102420.0;;;26.91;24.35
59654;BME280;66556;52.008;5.432;2023-05-02T06:34:21;102423.0;;;26.94;24.35
59654;BME280;66556;52.008;5.432;2023-05-02T06:37:33;102425.0;;;27.11;24.21
59654;BME280;66556;52.008;5.432;2023-05-02T06:39:10;102428.0;;;27.42;23.98
59654;BME280;66556;52.008;5.432;2023-05-02T06:40:46;102425.0;;;27.47;24.16
59654;BME280;66556;52.008;5.432;2023-05-02T06:43:59;102432.0;;;27.61;23.99
59654;BME280;66556;52.008;5.432;2023-05-02T06:45:35;102436.99999999999;;;27.6;23.58
59654;BME280;66556;52.008;5.432;2023-05-02T06:47:11;102441.00000000001;;;27.12;23.65
59654;BME280;66556;52.008;5.432;2023-05-02T06:48:47;102447.0;;;26.72;24.26
59654;BME280;66556;52.008;5.432;2023-05-02T06:52:00;102448.0;;;27.31;23.9
59654;BME280;66556;52.008;5.432;2023-05-02T06:53:36;102458.0;;;27.59;23.45
59654;BME280;66556;52.008;5.432;2023-05-02T06:55:12;102458.99999999999;;;27.32;23.59
59654;BME280;66556;52.008;5.432;2023-05-02T06:58:25;102464.00000000001;;;27.67;22.8
59654;BME280;66556;52.008;5.432;2023-05-02T07:00:01;102464.00000000001;;;27.67;23.08
59654;BME280;66556;52.008;5.432;2023-05-02T07:01:37;102463.00000000001;;;27.79;22.81
59654;BME280;66556;52.008;5.432;2023-05-02T07:04:49;102468.0;;;28.52;21.81
59654;BME280;66556;52.008;5.432;2023-05-02T07:06:25;102458.99999999999;;;28.43;22.13
59654;BME280;66556;52.008;5.432;2023-05-02T07:08:02;102467.0;;;28.72;21.79
59654;BME280;66556;52.008;5.432;2023-05-02T07:09:39;102467.0;;;28.29;22.23
59654;BME280;66556;52.008;5.432;2023-05-02T07:12:51;102468.0;;;28.49;22.07
59654;BME280;66556;52.008;5.432;2023-05-02T07:14:27;102471.0;;;28.44;21.96
59654;BME280;66556;52.008;5.432;2023-05-02T07:16:05;102480.0;;;27.73;22.39
59654;BME280;66556;52.008;5.432;2023-05-02T07:19:19;102483.99999999999;;;28.17;22.2
59654;BME280;66556;52.008;5.432;2023-05-02T07:20:55;102480.0;;;27.95;22.69
59654;BME280;66556;52.008;5.432;2023-05-02T07:22:31;102489.00000000001;;;27.75;22.1
59654;BME280;66556;52.008;5.432;2023-05-02T07:25:43;102492.0;;;27.7;22.55
59654;BME280;66556;52.008;5.432;2023-05-02T07:27:20;102491.00000000001;;;27.95;22.23
59654;BME280;66556;52.008;5.432;2023-05-02T07:28:56;102499.0;;;27.83;22.16
59654;BME280;66556;52.008;5.432;2023-05-02T07:30:32;102493.0;;;28.16;22.35
59654;BME280;66556;52.008;5.432;2023-05-02T07:33:44;102492.0;;;28.03;22.32
59654;BME280;66556;52.008;5.432;2023-05-02T07:35:20;102501.0;;;26.42;23.5
59654;BME280;66556;52.008;5.432;2023-05-02T07:36:57;102500.0;;;26.71;23.64
59654;BME280;66556;52.008;5.432;2023-05-02T07:40:10;102505.0;;;27.45;23.32
59654;BME280;66556;52.008;5.432;2023-05-02T07:41:46;102504.0;;;27.37;23.28
59654;BME280;66556;52.008;5.432;2023-05-02T07:43:22;102507.0;;;27.86;22.94
59654;BME280;66556;52.008;5.432;2023-05-02T07:46:35;102509.99999999999;;;27.88;22.88
59654;BME280;66556;52.008;5.432;2023-05-02T07:48:11;102516.00000000001;;;27.75;23.3
59654;BME280;66556;52.008;5.432;2023-05-02T07:49:49;102523.0;;;27.24;23.28
59654;BME280;66556;52.008;5.432;2023-05-02T07:53:01;102522.0;;;27.59;23.47
59654;BME280;66556;52.008;5.432;2023-05-02T07:54:37;102522.0;;;28.01;23.55
59654;BME280;66556;52.008;5.432;2023-05-02T07:56:14;102526.0;;;27.89;23.19
59654;BME280;66556;52.008;5.432;2023-05-02T07:57:50;102533.0;;;27.03;23.51
59654;BME280;66556;52.008;5.432;2023-05-02T08:01:02;102533.99999999999;;;27.96;22.57
59654;BME280;66556;52.008;5.432;2023-05-02T08:02:40;102534.99999999999;;;28.2;22.26
59654;BME280;66556;52.008;5.432;2023-05-02T08:04:16;102542.0;;;27.23;22.8
59654;BME280;66556;52.008;5.432;2023-05-02T08:07:30;102550.0;;;26.6;23.23
59654;BME280;66556;52.008;5.432;2023-05-02T08:09:07;102544.0;;;27.49;22.63
59654;BME280;66556;52.008;5.432;2023-05-02T08:10:43;102545.0;;;27.17;23.0
59654;BME280;66556;52.008;5.432;2023-05-02T08:13:56;102543.0;;;27.17;23.25
59654;BME280;66556;52.008;5.432;2023-05-02T08:15:32;102546.0;;;28.27;22.02
59654;BME280;66556;52.008;5.432;2023-05-02T08:17:08;102552.0;;;28.09;21.93
59654;BME280;66556;52.008;5.432;2023-05-02T08:18:44;102558.99999999999;;;27.81;22.14
59654;BME280;66556;52.008;5.432;2023-05-02T08:21:57;102555.0;;;28.04;22.16
59654;BME280;66556;52.008;5.432;2023-05-02T08:23:34;102561.99999999999;;;27.48;21.89
59654;BME280;66556;52.008;5.432;2023-05-02T08:25:09;102558.0;;;28.14;21.87
59654;BME280;66556;52.008;5.432;2023-05-02T08:28:21;102565.00000000001;;;27.92;22.0
59654;BME280;66556;52.008;5.432;2023-05-02T08:29:57;102566.00000000001;;;28.04;21.65
59654;BME280;66556;52.008;5.432;2023-05-02T08:31:34;102558.0;;;28.47;21.58
59654;BME280;66556;52.008;5.432;2023-05-02T08:34:46;102558.0;;;28.36;21.56
59654;BME280;66556;52.008;5.432;2023-05-02T08:36:23;102565.00000000001;;;28.62;21.42
59654;BME280;66556;52.008;5.432;2023-05-02T08:39:35;102568.0;;;28.15;21.58
59654;BME280;66556;52.008;5.432;2023-05-02T08:42:50;102573.0;;;28.4;21.43
59654;BME280;66556;52.008;5.432;2023-05-02T08:44:27;102577.0;;;28.6;21.12
59654;BME280;66556;52.008;5.432;2023-05-02T08:46:04;102577.0;;;28.53;20.83
59654;BME280;66556;52.008;5.432;2023-05-02T08:49:18;102579.0;;;28.12;20.81
59654;BME280;66556;52.008;5.432;2023-05-02T08:50:56;102580.0;;;28.61;20.36
59654;BME280;66556;52.008;5.432;2023-05-02T08:52:34;102584.99999999999;;;28.87;20.61
59654;BME280;66556;52.008;5.432;2023-05-02T08:55:52;102592.0;;;28.25;20.58
59654;BME280;66556;52.008;5.432;2023-05-02T08:57:28;102588.00000000001;;;28.08;21.24
59654;BME280;66556;52.008;5.432;2023-05-02T08:59:05;102592.0;;;28.2;21.27
59654;BME280;66556;52.008;5.432;2023-05-02T09:00:42;102590.00000000001;;;28.86;20.96
59654;BME280;66556;52.008;5.432;2023-05-02T09:04:30;102593.0;;;28.42;20.87
59654;BME280;66556;52.008;5.432;2023-05-02T09:06:10;102599.0;;;28.36;20.84
59654;BME280;66556;52.008;5.432;2023-05-02T09:07:48;102603.0;;;28.19;20.96
59654;BME280;66556;52.008;5.432;2023-05-02T09:09:26;102605.0;;;28.9;20.51
59654;BME280;66556;52.008;5.432;2023-05-02T09:11:03;102611.99999999999;;;28.1;20.34
59654;BME280;66556;52.008;5.432;2023-05-02T09:14:16;102617.0;;;27.6;20.36
59654;BME280;66556;52.008;5.432;2023-05-02T09:15:56;102619.0;;;27.96;20.02
59654;BME280;66556;52.008;5.432;2023-05-02T09:17:38;102614.00000000001;;;28.4;20.16
59654;BME280;66556;52.008;5.432;2023-05-02T09:21:04;102614.00000000001;;;29.17;19.96
59654;BME280;66556;52.008;5.432;2023-05-02T09:22:47;102617.0;;;27.85;19.73
59654;BME280;66556;52.008;5.432;2023-05-02T09:24:24;102619.0;;;28.09;19.54
59654;BME280;66556;52.008;5.432;2023-05-02T09:26:01;102620.0;;;28.49;18.81
59654;BME280;66556;52.008;5.432;2023-05-02T09:29:32;102614.00000000001;;;28.82;19.0
59654;BME280;66556;52.008;5.432;2023-05-02T09:31:10;102617.0;;;28.99;19.09
59654;BME280;66556;52.008;5.432;2023-05-02T09:32:48;102619.0;;;29.18;18.79
59654;BME280;66556;52.008;5.432;2023-05-02T09:34:25;102624.0;;;28.94;18.53
59654;BME280;66556;52.008;5.432;2023-05-02T09:37:39;102621.0;;;29.13;17.91
59654;BME280;66556;52.008;5.432;2023-05-02T09:39:17;102621.0;;;29.78;19.09
59654;BME280;66556;52.008;5.432;2023-05-02T09:40:56;102621.0;;;29.74;18.47
59654;BME280;66556;52.008;5.432;2023-05-02T09:42:32;102625.0;;;30.44;18.31
59654;BME280;66556;52.008;5.432;2023-05-02T09:45:55;102620.0;;;29.43;18.18
59654;BME280;66556;52.008;5.432;2023-05-02T09:47:32;102630.0;;;29.63;17.62
59654;BME280;66556;52.008;5.432;2023-05-02T09:49:08;102629.0;;;29.03;18.11
59654;BME280;66556;52.008;5.432;2023-05-02T09:50:44;102630.0;;;29.59;17.87
59654;BME280;66556;52.008;5.432;2023-05-02T09:53:56;102634.99999999999;;;29.13;18.06
59654;BME280;66556;52.008;5.432;2023-05-02T09:55:33;102633.99999999999;;;29.03;17.53
59654;BME280;66556;52.008;5.432;2023-05-02T09:57:09;102642.0;;;28.92;17.59
59654;BME280;66556;52.008;5.432;2023-05-02T10:00:21;102630.0;;;29.26;18.45
59654;BME280;66556;52.008;5.432;2023-05-02T10:01:58;102631.0;;;29.25;18.25
59654;BME280;66556;52.008;5.432;2023-05-02T10:03:36;102627.0;;;29.99;17.3
59654;BME280;66556;52.008;5.432;2023-05-02T10:06:54;102629.0;;;29.8;17.71
59654;BME280;66556;52.008;5.432;2023-05-02T10:08:32;102631.0;;;28.68;17.18
59654;BME280;66556;52.008;5.432;2023-05-02T10:10:10;102630.0;;;29.46;17.45
59654;BME280;66556;52.008;5.432;2023-05-02T10:11:51;102631.0;;;29.97;17.84
59654;BME280;66556;52.008;5.432;2023-05-02T10:15:09;102630.0;;;30.02;17.43
59654;BME280;66556;52.008;5.432;2023-05-02T10:16:54;102631.0;;;30.52;17.02
59654;BME280;66556;52.008;5.432;2023-05-02T10:18:40;102640.00000000001;;;30.33;17.0
59654;BME280;66556;52.008;5.432;2023-05-02T10:20:21;102641.00000000001;;;29.99;15.98
59654;BME280;66556;52.008;5.432;2023-05-02T10:23:41;102643.0;;;29.92;16.27
59654;BME280;66556;52.008;5.432;2023-05-02T10:25:18;102642.0;;;29.93;16.75
59654;BME280;66556;52.008;5.432;2023-05-02T10:26:55;102643.0;;;30.92;15.92
59654;BME280;66556;52.008;5.432;2023-05-02T10:28:31;102643.0;;;31.02;15.92
59654;BME280;66556;52.008;5.432;2023-05-02T10:31:48;102650.0;;;30.98;16.43
59654;BME280;66556;52.008;5.432;2023-05-02T10:33:25;102650.0;;;31.35;16.15
59654;BME280;66556;52.008;5.432;2023-05-02T10:35:03;102653.0;;;31.13;15.49
59654;BME280;66556;52.008;5.432;2023-05-02T10:38:19;102661.99999999999;;;30.64;15.48
59654;BME280;66556;52.008;5.432;2023-05-02T10:39:55;102661.99999999999;;;31.27;15.94
59654;BME280;66556;52.008;5.432;2023-05-02T10:41:33;102655.0;;;31.2;14.76
59654;BME280;66556;52.008;5.432;2023-05-02T10:43:14;102652.0;;;31.62;15.64
59654;BME280;66556;52.008;5.432;2023-05-02T10:46:30;102654.0;;;32.28;16.5
59654;BME280;66556;52.008;5.432;2023-05-02T10:48:16;102641.00000000001;;;31.65;14.93
59654;BME280;66556;52.008;5.432;2023-05-02T10:49:55;102651.0;;;32.03;15.43
59654;BME280;66556;52.008;5.432;2023-05-02T10:51:32;102651.0;;;31.44;14.94
59654;BME280;66556;52.008;5.432;2023-05-02T10:55:15;102653.0;;;31.87;14.62
59654;BME280;66556;52.008;5.432;2023-05-02T10:57:02;102650.0;;;32.76;13.83
59654;BME280;66556;52.008;5.432;2023-05-02T10:58:42;102656.0;;;32.05;14.35